Wetterdaten: Woche 15.02.10 - 21.02.10 (KW7)
Datum Zeit Temp. Innen Temp. Aussen UV X Diff Temp. Feuchte Inne Feuchte Auss Sonnenschein Luftdruck Regen ab 0,1 Wind Sonnenschein Windben
15.02.2010 00:00 9,2 C -2,3 C 0,0 UV-I 0,0 C 45 % 92 % 0 % 1008,0 hPa 0,0 l/m 0,0 km/h (0 Bft) 0,00 h 0,0 km/h (0 Bft)
15.02.2010 01:00 9,2 C -2,4 C 0,0 UV-I 0,0 C 45 % 92 % 0 % 1007,6 hPa 0,0 l/m 0,0 km/h (0 Bft) 0,00 h 0,0 km/h (0 Bft)
15.02.2010 02:00 9,2 C -2,4 C 0,0 UV-I 0,0 C 45 % 92 % 0 % 1006,9 hPa 0,0 l/m 0,0 km/h (0 Bft) 0,00 h 0,0 km/h (0 Bft)
15.02.2010 03:00 9,2 C -2,4 C 0,0 UV-I 0,0 C 45 % 92 % 0 % 1006,7 hPa 0,0 l/m 0,0 km/h (0 Bft) 0,00 h 0,0 km/h (0 Bft)
15.02.2010 04:00 9,2 C -2,4 C 0,0 UV-I 0,0 C 45 % 92 % 0 % 1006,2 hPa 0,0 l/m 0,0 km/h (0 Bft) 0,00 h 0,0 km/h (0 Bft)
15.02.2010 05:00 9,1 C -2,4 C 0,0 UV-I 0,0 C 45 % 92 % 0 % 1005,9 hPa 0,0 l/m 0,0 km/h (0 Bft) 0,00 h 0,0 km/h (0 Bft)
15.02.2010 06:00 9,2 C -2,5 C 0,0 UV-I 0,0 C 45 % 92 % 0 % 1005,6 hPa 0,0 l/m 0,0 km/h (0 Bft) 0,00 h 0,0 km/h (0 Bft)
15.02.2010 07:00 9,1 C -2,5 C 0,0 UV-I 0,0 C 45 % 92 % 0 % 1005,3 hPa 0,0 l/m 0,0 km/h (0 Bft) 0,00 h 0,0 km/h (0 Bft)
15.02.2010 08:00 9,1 C -2,5 C 0,0 UV-I 0,0 C 45 % 92 % 0 % 1005,2 hPa 0,0 l/m 0,0 km/h (0 Bft) 0,00 h 0,0 km/h (0 Bft)
15.02.2010 09:00 9,2 C -2,3 C 0,0 UV-I 0,0 C 45 % 93 % 0 % 1005,1 hPa 0,0 l/m 0,3 km/h (0 Bft) 0,00 h 1,0 km/h (0 Bft)
15.02.2010 10:00 9,3 C -2,1 C 0,0 UV-I 0,0 C 45 % 91 % 1 % 1005,1 hPa 0,0 l/m 2,3 km/h (1 Bft) 0,00 h 3,3 km/h (1 Bft)
15.02.2010 11:00 9,5 C -1,7 C 0,1 UV-I 0,9 C 44 % 90 % 26 % 1005,3 hPa 0,0 l/m 1,4 km/h (1 Bft) 0,00 h 2,7 km/h (1 Bft)
15.02.2010 12:00 9,9 C -0,8 C 0,3 UV-I 2,5 C 43 % 87 % 70 % 1005,6 hPa 0,0 l/m 2,0 km/h (1 Bft) 0,23 h 3,6 km/h (1 Bft)
15.02.2010 13:00 10,3 C -0,1 C 0,7 UV-I 2,1 C 42 % 83 % 59 % 1005,2 hPa 0,0 l/m 3,3 km/h (1 Bft) 0,17 h 4,9 km/h (1 Bft)
15.02.2010 14:00 10,7 C 0,1 C 1,6 UV-I 1,2 C 41 % 79 % 33 % 1005,1 hPa 0,1 l/m 2,4 km/h (1 Bft) 0,00 h 2,8 km/h (1 Bft)
15.02.2010 15:00 10,3 C -0,4 C 0,4 UV-I 0,0 C 40 % 80 % 0 % 1003,9 hPa 0,0 l/m 0,4 km/h (0 Bft) 0,00 h 1,0 km/h (0 Bft)
15.02.2010 16:00 9,9 C -0,7 C 0,1 UV-I 0,0 C 41 % 83 % 0 % 1003,3 hPa 0,0 l/m 0,0 km/h (0 Bft) 0,00 h 0,0 km/h (0 Bft)
15.02.2010 17:00 9,7 C -1,0 C 0,0 UV-I 0,0 C 43 % 85 % 0 % 1003,1 hPa 0,0 l/m 0,3 km/h (0 Bft) 0,00 h 0,9 km/h (0 Bft)
15.02.2010 18:00 9,6 C -1,3 C 0,0 UV-I 0,0 C 43 % 87 % 0 % 1003,1 hPa 0,0 l/m 0,5 km/h (0 Bft) 0,00 h 0,7 km/h (0 Bft)
15.02.2010 19:00 9,5 C -1,6 C 0,0 UV-I 0,0 C 44 % 88 % 0 % 1003,0 hPa 0,0 l/m 0,6 km/h (0 Bft) 0,00 h 2,0 km/h (1 Bft)
15.02.2010 20:00 9,4 C -1,8 C 0,0 UV-I 0,0 C 43 % 87 % 0 % 1002,8 hPa 0,0 l/m 1,2 km/h (1 Bft) 0,00 h 1,9 km/h (1 Bft)
15.02.2010 21:00 9,3 C -2,1 C 0,0 UV-I 0,0 C 43 % 87 % 0 % 1002,6 hPa 0,0 l/m 0,4 km/h (0 Bft) 0,00 h 1,4 km/h (1 Bft)
15.02.2010 22:00 9,2 C -2,5 C 0,0 UV-I 0,0 C 43 % 88 % 0 % 1002,4 hPa 0,0 l/m 0,1 km/h (0 Bft) 0,00 h 0,7 km/h (0 Bft)
15.02.2010 23:00 9,1 C -2,7 C 0,0 UV-I 0,0 C 43 % 89 % 0 % 1002,3 hPa 0,0 l/m 0,6 km/h (0 Bft) 0,00 h 0,9 km/h (0 Bft)
16.02.2010 00:00 9,2 C -2,5 C 0,0 UV-I 0,0 C 44 % 90 % 0 % 1002,1 hPa 0,0 l/m 0,2 km/h (0 Bft) 0,00 h 0,6 km/h (0 Bft)
16.02.2010 01:00 9,3 C -2,5 C 0,0 UV-I 0,0 C 44 % 91 % 0 % 1001,7 hPa 0,0 l/m 0,5 km/h (0 Bft) 0,00 h 1,5 km/h (1 Bft)
16.02.2010 02:00 9,2 C -2,5 C 0,0 UV-I 0,0 C 44 % 92 % 0 % 1001,3 hPa 0,0 l/m 0,6 km/h (0 Bft) 0,00 h 1,4 km/h (1 Bft)
16.02.2010 03:00 9,2 C -2,4 C 0,0 UV-I 0,0 C 44 % 92 % 0 % 1001,0 hPa 0,0 l/m 0,8 km/h (0 Bft) 0,00 h 1,6 km/h (1 Bft)
16.02.2010 04:00 9,2 C -2,4 C 0,0 UV-I 0,0 C 44 % 92 % 0 % 1000,7 hPa 0,0 l/m 0,8 km/h (0 Bft) 0,00 h 1,0 km/h (0 Bft)
16.02.2010 05:00 9,1 C -2,6 C 0,0 UV-I 0,0 C 44 % 91 % 0 % 1000,2 hPa 0,0 l/m 0,4 km/h (0 Bft) 0,00 h 0,8 km/h (0 Bft)
16.02.2010 06:00 9,1 C -2,3 C 0,0 UV-I 0,0 C 44 % 91 % 0 % 999,9 hPa 0,0 l/m 1,3 km/h (1 Bft) 0,00 h 2,2 km/h (1 Bft)
16.02.2010 07:00 9,1 C -2,0 C 0,0 UV-I 0,0 C 44 % 91 % 0 % 999,6 hPa 0,0 l/m 1,7 km/h (1 Bft) 0,00 h 2,4 km/h (1 Bft)
16.02.2010 08:00 9,3 C -2,0 C 0,0 UV-I 0,0 C 44 % 89 % 0 % 999,8 hPa 0,0 l/m 4,5 km/h (1 Bft) 0,00 h 5,6 km/h (1 Bft)
16.02.2010 09:00 9,4 C -1,7 C 0,2 UV-I 3,6 C 44 % 88 % 70 % 999,9 hPa 0,0 l/m 7,8 km/h (2 Bft) 0,70 h 7,7 km/h (2 Bft)
16.02.2010 10:00 9,6 C 0,0 C 1,7 UV-I 2,8 C 43 % 82 % 76 % 1000,0 hPa 0,0 l/m 13,7 km/h (3 Bft) 0,57 h 13,4 km/h (3 Bft)
16.02.2010 11:00 9,9 C 1,9 C 3,5 UV-I 4,9 C 43 % 75 % 100 % 1000,2 hPa 0,1 l/m 13,9 km/h (3 Bft) 0,93 h 13,3 km/h (3 Bft)
16.02.2010 12:00 10,4 C 2,7 C 4,3 UV-I 3,1 C 42 % 70 % 82 % 1000,2 hPa 0,6 l/m 14,2 km/h (3 Bft) 0,70 h 13,3 km/h (3 Bft)
16.02.2010 13:00 11,6 C 3,0 C 4,1 UV-I 2,1 C 40 % 68 % 60 % 1000,6 hPa 0,1 l/m 15,9 km/h (3 Bft) 0,20 h 16,1 km/h (3 Bft)
16.02.2010 14:00 12,5 C 3,3 C 3,6 UV-I 2,2 C 38 % 67 % 58 % 1001,6 hPa 0,0 l/m 14,8 km/h (3 Bft) 0,23 h 14,2 km/h (3 Bft)
16.02.2010 15:00 13,6 C 4,1 C 2,1 UV-I 5,1 C 36 % 65 % 100 % 1001,7 hPa 0,0 l/m 9,5 km/h (2 Bft) 1,00 h 9,0 km/h (2 Bft)
16.02.2010 16:00 14,1 C 3,6 C 0,7 UV-I 3,4 C 34 % 64 % 85 % 1000,4 hPa 0,0 l/m 8,0 km/h (2 Bft) 0,90 h 8,2 km/h (2 Bft)
16.02.2010 17:00 13,1 C 2,2 C 0,0 UV-I 0,0 C 35 % 68 % 0 % 997,9 hPa 0,0 l/m 3,8 km/h (1 Bft) 0,00 h 5,8 km/h (2 Bft)
16.02.2010 18:00 11,9 C 1,1 C 0,0 UV-I 0,0 C 36 % 70 % 0 % 997,1 hPa 0,0 l/m 4,0 km/h (1 Bft) 0,00 h 5,2 km/h (1 Bft)
16.02.2010 19:00 11,0 C 0,5 C 0,0 UV-I 0,0 C 37 % 73 % 0 % 996,9 hPa 0,0 l/m 5,2 km/h (1 Bft) 0,00 h 6,3 km/h (2 Bft)
16.02.2010 20:00 10,5 C 0,0 C 0,0 UV-I 0,0 C 38 % 74 % 0 % 996,6 hPa 0,0 l/m 5,1 km/h (1 Bft) 0,00 h 6,1 km/h (2 Bft)
16.02.2010 21:00 10,3 C -0,3 C 0,0 UV-I 0,0 C 39 % 75 % 0 % 996,2 hPa 0,0 l/m 6,6 km/h (2 Bft) 0,00 h 8,8 km/h (2 Bft)
16.02.2010 22:00 10,2 C -0,5 C 0,0 UV-I 0,0 C 39 % 76 % 0 % 996,2 hPa 0,0 l/m 6,7 km/h (2 Bft) 0,00 h 7,7 km/h (2 Bft)
16.02.2010 23:00 10,0 C -0,9 C 0,0 UV-I 0,0 C 38 % 75 % 0 % 995,8 hPa 0,0 l/m 7,6 km/h (2 Bft) 0,00 h 8,5 km/h (2 Bft)
17.02.2010 00:00 9,9 C -1,1 C 0,0 UV-I 0,0 C 38 % 75 % 0 % 995,4 hPa 0,0 l/m 7,8 km/h (2 Bft) 0,00 h 9,4 km/h (2 Bft)
17.02.2010 01:00 9,9 C -1,4 C 0,0 UV-I 0,0 C 38 % 76 % 0 % 994,9 hPa 0,0 l/m 5,3 km/h (1 Bft) 0,00 h 5,9 km/h (2 Bft)
17.02.2010 02:00 9,8 C -1,8 C 0,0 UV-I 0,0 C 38 % 76 % 0 % 994,5 hPa 0,0 l/m 6,3 km/h (2 Bft) 0,00 h 8,2 km/h (2 Bft)
17.02.2010 03:00 9,6 C -2,1 C 0,0 UV-I 0,0 C 38 % 76 % 0 % 994,0 hPa 0,0 l/m 5,5 km/h (1 Bft) 0,00 h 6,4 km/h (2 Bft)
17.02.2010 04:00 9,7 C -2,4 C 0,0 UV-I 0,0 C 38 % 77 % 0 % 993,5 hPa 0,0 l/m 2,1 km/h (1 Bft) 0,00 h 3,8 km/h (1 Bft)
17.02.2010 05:00 9,6 C -2,7 C 0,0 UV-I 0,0 C 38 % 78 % 0 % 993,0 hPa 0,0 l/m 4,1 km/h (1 Bft) 0,00 h 5,9 km/h (2 Bft)
17.02.2010 06:00 9,5 C -2,9 C 0,0 UV-I 0,0 C 38 % 79 % 0 % 992,4 hPa 0,0 l/m 3,3 km/h (1 Bft) 0,00 h 4,4 km/h (1 Bft)
17.02.2010 07:00 9,4 C -2,9 C 0,0 UV-I 0,0 C 38 % 80 % 0 % 992,0 hPa 0,0 l/m 3,9 km/h (1 Bft) 0,00 h 5,0 km/h (1 Bft)
17.02.2010 08:00 9,4 C -2,5 C 0,0 UV-I 0,0 C 38 % 81 % 0 % 991,9 hPa 0,0 l/m 5,2 km/h (1 Bft) 0,00 h 5,8 km/h (2 Bft)
17.02.2010 09:00 9,5 C -1,6 C 0,4 UV-I 0,4 C 39 % 80 % 12 % 991,6 hPa 0,0 l/m 4,5 km/h (1 Bft) 0,00 h 6,1 km/h (2 Bft)
17.02.2010 10:00 9,8 C -0,3 C 1,1 UV-I 1,8 C 39 % 77 % 50 % 991,4 hPa 0,0 l/m 5,4 km/h (1 Bft) 0,13 h 7,1 km/h (2 Bft)
17.02.2010 11:00 10,1 C 0,8 C 1,5 UV-I 1,9 C 39 % 75 % 55 % 991,4 hPa 0,0 l/m 5,0 km/h (1 Bft) 0,00 h 5,8 km/h (2 Bft)
17.02.2010 12:00 10,5 C 2,0 C 1,9 UV-I 2,7 C 39 % 73 % 77 % 991,1 hPa 0,0 l/m 6,2 km/h (2 Bft) 0,50 h 6,7 km/h (2 Bft)
17.02.2010 13:00 10,7 C 2,8 C 1,4 UV-I 2,5 C 39 % 71 % 72 % 990,8 hPa 0,0 l/m 5,6 km/h (1 Bft) 0,03 h 6,3 km/h (2 Bft)
17.02.2010 14:00 10,7 C 3,2 C 1,0 UV-I 2,3 C 39 % 69 % 66 % 990,3 hPa 0,0 l/m 3,6 km/h (1 Bft) 0,00 h 4,8 km/h (1 Bft)
17.02.2010 15:00 10,9 C 3,2 C 0,4 UV-I 0,8 C 39 % 69 % 23 % 990,0 hPa 0,0 l/m 8,0 km/h (2 Bft) 0,00 h 8,0 km/h (2 Bft)
17.02.2010 16:00 10,9 C 2,6 C 0,1 UV-I 0,0 C 41 % 77 % 1 % 989,9 hPa 0,0 l/m 7,5 km/h (2 Bft) 0,00 h 9,3 km/h (2 Bft)
17.02.2010 17:00 10,7 C 2,0 C 0,0 UV-I 0,0 C 43 % 84 % 0 % 989,8 hPa 0,1 l/m 4,3 km/h (1 Bft) 0,00 h 5,4 km/h (1 Bft)
17.02.2010 18:00 10,5 C 1,5 C 0,0 UV-I 0,0 C 45 % 88 % 0 % 989,8 hPa 0,0 l/m 3,4 km/h (1 Bft) 0,00 h 4,8 km/h (1 Bft)
17.02.2010 19:00 10,3 C 1,5 C 0,0 UV-I 0,0 C 46 % 90 % 0 % 989,6 hPa 0,0 l/m 7,0 km/h (2 Bft) 0,00 h 8,2 km/h (2 Bft)
17.02.2010 20:00 10,4 C 1,5 C 0,0 UV-I 0,0 C 47 % 91 % 0 % 989,5 hPa 0,0 l/m 10,4 km/h (2 Bft) 0,00 h 10,9 km/h (2 Bft)
17.02.2010 21:00 10,4 C 1,6 C 0,0 UV-I 0,0 C 47 % 90 % 0 % 989,7 hPa 0,0 l/m 10,8 km/h (2 Bft) 0,00 h 11,7 km/h (2 Bft)
17.02.2010 22:00 10,4 C 1,6 C 0,0 UV-I 0,0 C 48 % 90 % 0 % 989,7 hPa 0,2 l/m 9,1 km/h (2 Bft) 0,00 h 9,3 km/h (2 Bft)
17.02.2010 23:00 10,3 C 1,6 C 0,0 UV-I 0,0 C 48 % 92 % 0 % 989,6 hPa 0,2 l/m 5,5 km/h (1 Bft) 0,00 h 4,5 km/h (1 Bft)
18.02.2010 00:00 10,4 C 1,6 C 0,0 UV-I 0,0 C 49 % 92 % 0 % 989,8 hPa 0,0 l/m 5,4 km/h (1 Bft) 0,00 h 6,5 km/h (2 Bft)
18.02.2010 01:00 10,4 C 1,8 C 0,0 UV-I 0,0 C 49 % 92 % 0 % 989,8 hPa 0,0 l/m 8,0 km/h (2 Bft) 0,00 h 8,8 km/h (2 Bft)
18.02.2010 02:00 10,6 C 1,9 C 0,0 UV-I 0,0 C 49 % 92 % 0 % 989,9 hPa 0,0 l/m 7,2 km/h (2 Bft) 0,00 h 7,5 km/h (2 Bft)
18.02.2010 03:00 10,6 C 1,9 C 0,0 UV-I 0,0 C 49 % 92 % 0 % 990,0 hPa 0,0 l/m 6,3 km/h (2 Bft) 0,00 h 4,5 km/h (1 Bft)
18.02.2010 04:00 10,7 C 1,9 C 0,0 UV-I 0,0 C 50 % 93 % 0 % 989,9 hPa 0,2 l/m 3,7 km/h (1 Bft) 0,00 h 4,3 km/h (1 Bft)
18.02.2010 05:00 10,7 C 1,9 C 0,0 UV-I 0,0 C 50 % 94 % 0 % 990,1 hPa 0,0 l/m 3,8 km/h (1 Bft) 0,00 h 4,4 km/h (1 Bft)
18.02.2010 06:00 10,7 C 1,9 C 0,0 UV-I 0,0 C 51 % 94 % 0 % 990,6 hPa 0,0 l/m 3,3 km/h (1 Bft) 0,00 h 3,6 km/h (1 Bft)
18.02.2010 07:00 10,6 C 2,3 C 0,0 UV-I 0,0 C 53 % 95 % 0 % 991,3 hPa 0,1 l/m 0,8 km/h (0 Bft) 0,00 h 1,3 km/h (1 Bft)
18.02.2010 08:00 10,8 C 2,9 C 0,0 UV-I 0,0 C 53 % 95 % 0 % 991,9 hPa 0,0 l/m 3,4 km/h (1 Bft) 0,00 h 4,3 km/h (1 Bft)
18.02.2010 09:00 10,8 C 3,1 C 0,0 UV-I 0,0 C 54 % 95 % 0 % 992,8 hPa 0,0 l/m 5,5 km/h (1 Bft) 0,00 h 6,1 km/h (2 Bft)
18.02.2010 10:00 10,9 C 3,3 C 0,0 UV-I 0,0 C 54 % 95 % 0 % 993,7 hPa 0,0 l/m 7,3 km/h (2 Bft) 0,00 h 7,8 km/h (2 Bft)
18.02.2010 11:00 11,2 C 3,6 C 0,2 UV-I 0,4 C 53 % 95 % 12 % 994,6 hPa 0,0 l/m 5,8 km/h (2 Bft) 0,00 h 6,3 km/h (2 Bft)
18.02.2010 12:00 11,5 C 4,2 C 1,3 UV-I 1,8 C 52 % 92 % 51 % 995,2 hPa 0,0 l/m 6,7 km/h (2 Bft) 0,03 h 7,9 km/h (2 Bft)
18.02.2010 13:00 12,5 C 5,7 C 3,0 UV-I 4,5 C 49 % 83 % 92 % 996,1 hPa 0,0 l/m 8,0 km/h (2 Bft) 0,67 h 8,3 km/h (2 Bft)
18.02.2010 14:00 13,9 C 7,5 C 3,8 UV-I 6,2 C 46 % 74 % 100 % 999,0 hPa 0,0 l/m 8,0 km/h (2 Bft) 1,00 h 8,0 km/h (2 Bft)
18.02.2010 15:00 15,0 C 9,2 C 1,9 UV-I 5,4 C 42 % 66 % 99 % 997,6 hPa 0,0 l/m 6,0 km/h (2 Bft) 1,00 h 6,8 km/h (2 Bft)
18.02.2010 16:00 15,4 C 9,9 C 0,7 UV-I 2,5 C 41 % 65 % 69 % 996,0 hPa 0,0 l/m 3,7 km/h (1 Bft) 0,77 h 4,0 km/h (1 Bft)
18.02.2010 17:00 14,7 C 8,7 C 0,0 UV-I 0,0 C 42 % 68 % 0 % 994,4 hPa 0,0 l/m 3,0 km/h (1 Bft) 0,00 h 4,8 km/h (1 Bft)
18.02.2010 18:00 13,9 C 7,7 C 0,0 UV-I 0,0 C 43 % 71 % 0 % 994,0 hPa 0,0 l/m 7,8 km/h (2 Bft) 0,00 h 7,0 km/h (2 Bft)
18.02.2010 19:00 13,4 C 6,9 C 0,0 UV-I 0,0 C 45 % 75 % 0 % 994,1 hPa 0,0 l/m 7,5 km/h (2 Bft) 0,00 h 7,6 km/h (2 Bft)
18.02.2010 20:00 13,2 C 6,3 C 0,0 UV-I 0,0 C 46 % 77 % 0 % 994,2 hPa 0,0 l/m 12,3 km/h (3 Bft) 0,00 h 11,8 km/h (2 Bft)
18.02.2010 21:00 12,9 C 5,6 C 0,0 UV-I 0,0 C 46 % 78 % 0 % 993,6 hPa 0,0 l/m 8,2 km/h (2 Bft) 0,00 h 7,7 km/h (2 Bft)
18.02.2010 22:00 12,8 C 4,6 C 0,0 UV-I 0,0 C 46 % 81 % 0 % 993,3 hPa 0,0 l/m 6,3 km/h (2 Bft) 0,00 h 7,0 km/h (2 Bft)
18.02.2010 23:00 12,7 C 4,4 C 0,0 UV-I 0,0 C 47 % 84 % 0 % 992,9 hPa 0,1 l/m 4,6 km/h (1 Bft) 0,00 h 4,7 km/h (1 Bft)
19.02.2010 00:00 12,7 C 4,2 C 0,0 UV-I 0,0 C 47 % 86 % 0 % 992,3 hPa 0,0 l/m 3,3 km/h (1 Bft) 0,00 h 4,8 km/h (1 Bft)
19.02.2010 01:00 12,5 C 3,8 C 0,0 UV-I 0,0 C 47 % 85 % 0 % 991,6 hPa 0,0 l/m 8,6 km/h (2 Bft) 0,00 h 8,5 km/h (2 Bft)
19.02.2010 02:00 12,4 C 3,5 C 0,0 UV-I 0,0 C 48 % 86 % 0 % 991,3 hPa 0,0 l/m 6,6 km/h (2 Bft) 0,00 h 6,0 km/h (2 Bft)
19.02.2010 03:00 12,2 C 3,1 C 0,0 UV-I 0,0 C 48 % 87 % 0 % 991,0 hPa 0,0 l/m 5,2 km/h (1 Bft) 0,00 h 6,8 km/h (2 Bft)
19.02.2010 04:00 12,2 C 2,8 C 0,0 UV-I 0,0 C 48 % 89 % 0 % 990,4 hPa 0,0 l/m 5,5 km/h (1 Bft) 0,00 h 5,5 km/h (1 Bft)
19.02.2010 05:00 12,2 C 3,3 C 0,0 UV-I 0,0 C 49 % 89 % 0 % 989,7 hPa 0,0 l/m 6,1 km/h (2 Bft) 0,00 h 6,4 km/h (2 Bft)
19.02.2010 06:00 12,2 C 3,5 C 0,0 UV-I 0,0 C 49 % 89 % 0 % 989,4 hPa 0,0 l/m 5,4 km/h (1 Bft) 0,00 h 5,5 km/h (1 Bft)
19.02.2010 07:00 12,1 C 3,5 C 0,0 UV-I 0,0 C 49 % 89 % 0 % 988,9 hPa 0,0 l/m 6,8 km/h (2 Bft) 0,00 h 6,4 km/h (2 Bft)
19.02.2010 08:00 12,1 C 3,7 C 0,0 UV-I 0,0 C 49 % 89 % 0 % 989,0 hPa 0,0 l/m 6,7 km/h (2 Bft) 0,00 h 7,0 km/h (2 Bft)
19.02.2010 09:00 12,4 C 4,6 C 0,3 UV-I 0,5 C 49 % 87 % 14 % 989,6 hPa 0,0 l/m 8,8 km/h (2 Bft) 0,00 h 9,1 km/h (2 Bft)
19.02.2010 10:00 12,7 C 5,6 C 0,5 UV-I 1,4 C 49 % 85 % 40 % 989,6 hPa 0,0 l/m 5,4 km/h (1 Bft) 0,00 h 6,4 km/h (2 Bft)
19.02.2010 11:00 12,8 C 6,4 C 0,1 UV-I 0,3 C 49 % 81 % 8 % 989,7 hPa 0,0 l/m 10,5 km/h (2 Bft) 0,00 h 11,3 km/h (2 Bft)
19.02.2010 12:00 12,7 C 5,8 C 1,0 UV-I 0,1 C 49 % 81 % 4 % 989,9 hPa 0,0 l/m 11,3 km/h (2 Bft) 0,00 h 15,5 km/h (3 Bft)
19.02.2010 13:00 13,0 C 6,1 C 1,1 UV-I 0,9 C 47 % 74 % 27 % 989,9 hPa 0,0 l/m 11,9 km/h (2 Bft) 0,10 h 11,9 km/h (2 Bft)
19.02.2010 14:00 12,7 C 5,2 C 0,0 UV-I 0,0 C 45 % 74 % 0 % 989,8 hPa 0,0 l/m 11,6 km/h (2 Bft) 0,00 h 11,8 km/h (2 Bft)
19.02.2010 15:00 12,4 C 4,9 C 0,2 UV-I 0,0 C 46 % 76 % 0 % 990,1 hPa 0,0 l/m 9,3 km/h (2 Bft) 0,00 h 9,1 km/h (2 Bft)
19.02.2010 16:00 12,3 C 4,6 C 0,0 UV-I 0,0 C 46 % 79 % 0 % 990,6 hPa 0,0 l/m 11,5 km/h (2 Bft) 0,00 h 9,9 km/h (2 Bft)
19.02.2010 17:00 12,1 C 3,9 C 0,0 UV-I 0,0 C 47 % 84 % 0 % 991,3 hPa 0,0 l/m 8,8 km/h (2 Bft) 0,00 h 10,4 km/h (2 Bft)
19.02.2010 18:00 12,0 C 3,4 C 0,0 UV-I 0,0 C 48 % 87 % 0 % 992,1 hPa 0,0 l/m 7,3 km/h (2 Bft) 0,00 h 7,3 km/h (2 Bft)
19.02.2010 19:00 11,9 C 3,1 C 0,0 UV-I 0,0 C 48 % 87 % 0 % 992,6 hPa 0,0 l/m 8,1 km/h (2 Bft) 0,00 h 8,1 km/h (2 Bft)
19.02.2010 20:00 11,7 C 2,9 C 0,0 UV-I 0,0 C 49 % 87 % 0 % 993,1 hPa 0,0 l/m 6,3 km/h (2 Bft) 0,00 h 7,1 km/h (2 Bft)
19.02.2010 21:00 11,6 C 2,7 C 0,0 UV-I 0,0 C 48 % 85 % 0 % 993,6 hPa 0,0 l/m 7,3 km/h (2 Bft) 0,00 h 6,8 km/h (2 Bft)
19.02.2010 22:00 11,6 C 2,3 C 0,0 UV-I 0,0 C 48 % 86 % 0 % 994,0 hPa 0,0 l/m 5,0 km/h (1 Bft) 0,00 h 6,3 km/h (2 Bft)
19.02.2010 23:00 11,5 C 2,1 C 0,0 UV-I 0,0 C 48 % 87 % 0 % 994,2 hPa 0,0 l/m 5,6 km/h (1 Bft) 0,00 h 5,7 km/h (1 Bft)
20.02.2010 00:00 11,5 C 2,0 C 0,0 UV-I 0,0 C 48 % 87 % 0 % 994,4 hPa 0,0 l/m 4,9 km/h (1 Bft) 0,00 h 5,6 km/h (1 Bft)
20.02.2010 01:00 11,5 C 1,7 C 0,0 UV-I 0,0 C 47 % 86 % 0 % 994,6 hPa 0,0 l/m 4,1 km/h (1 Bft) 0,00 h 5,6 km/h (1 Bft)
20.02.2010 02:00 11,4 C 1,5 C 0,0 UV-I 0,0 C 47 % 86 % 0 % 994,5 hPa 0,0 l/m 4,9 km/h (1 Bft) 0,00 h 5,7 km/h (1 Bft)
20.02.2010 03:00 11,3 C 1,4 C 0,0 UV-I 0,0 C 47 % 86 % 0 % 994,3 hPa 0,0 l/m 4,9 km/h (1 Bft) 0,00 h 5,8 km/h (2 Bft)
20.02.2010 04:00 11,3 C 1,0 C 0,0 UV-I 0,0 C 47 % 87 % 0 % 994,1 hPa 0,0 l/m 3,1 km/h (1 Bft) 0,00 h 4,5 km/h (1 Bft)
20.02.2010 05:00 11,3 C 0,8 C 0,0 UV-I 0,0 C 47 % 88 % 0 % 993,8 hPa 0,0 l/m 2,8 km/h (1 Bft) 0,00 h 4,9 km/h (1 Bft)
20.02.2010 06:00 11,3 C 0,9 C 0,0 UV-I 0,0 C 47 % 88 % 0 % 993,9 hPa 0,0 l/m 2,8 km/h (1 Bft) 0,00 h 3,4 km/h (1 Bft)
20.02.2010 07:00 11,2 C 1,0 C 0,0 UV-I 0,0 C 47 % 89 % 0 % 994,0 hPa 0,0 l/m 4,0 km/h (1 Bft) 0,00 h 4,8 km/h (1 Bft)
20.02.2010 08:00 11,2 C 1,1 C 0,0 UV-I 0,0 C 47 % 89 % 0 % 994,3 hPa 0,0 l/m 3,6 km/h (1 Bft) 0,00 h 5,0 km/h (1 Bft)
20.02.2010 09:00 11,1 C 1,6 C 0,0 UV-I 0,0 C 48 % 89 % 1 % 994,6 hPa 0,0 l/m 6,1 km/h (2 Bft) 0,00 h 7,4 km/h (2 Bft)
20.02.2010 10:00 11,2 C 2,2 C 0,2 UV-I 0,0 C 48 % 88 % 0 % 995,0 hPa 0,0 l/m 8,1 km/h (2 Bft) 0,00 h 8,1 km/h (2 Bft)
20.02.2010 11:00 11,2 C 2,5 C 0,2 UV-I 0,0 C 48 % 87 % 1 % 995,2 hPa 0,0 l/m 7,1 km/h (2 Bft) 0,00 h 7,5 km/h (2 Bft)
20.02.2010 12:00 11,4 C 2,9 C 0,6 UV-I 0,0 C 48 % 85 % 1 % 995,7 hPa 0,0 l/m 9,5 km/h (2 Bft) 0,00 h 10,7 km/h (2 Bft)
20.02.2010 13:00 11,9 C 3,7 C 1,6 UV-I 1,4 C 47 % 81 % 40 % 996,0 hPa 0,0 l/m 9,4 km/h (2 Bft) 0,07 h 9,3 km/h (2 Bft)
20.02.2010 14:00 12,1 C 4,3 C 1,3 UV-I 0,9 C 46 % 78 % 24 % 996,0 hPa 0,0 l/m 8,4 km/h (2 Bft) 0,00 h 8,6 km/h (2 Bft)
20.02.2010 15:00 12,3 C 4,7 C 0,8 UV-I 0,5 C 45 % 75 % 13 % 996,2 hPa 0,0 l/m 7,9 km/h (2 Bft) 0,00 h 7,7 km/h (2 Bft)
20.02.2010 16:00 12,5 C 4,7 C 0,5 UV-I 0,7 C 44 % 75 % 20 % 996,4 hPa 0,0 l/m 7,0 km/h (2 Bft) 0,23 h 6,6 km/h (2 Bft)
20.02.2010 17:00 12,4 C 4,3 C 0,0 UV-I 0,0 C 44 % 77 % 1 % 996,5 hPa 0,0 l/m 2,6 km/h (1 Bft) 0,00 h 3,6 km/h (1 Bft)
20.02.2010 18:00 12,0 C 3,5 C 0,0 UV-I 0,0 C 45 % 79 % 0 % 996,7 hPa 0,0 l/m 1,7 km/h (1 Bft) 0,00 h 2,6 km/h (1 Bft)
20.02.2010 19:00 11,7 C 3,2 C 0,0 UV-I 0,0 C 45 % 79 % 0 % 996,9 hPa 0,0 l/m 3,8 km/h (1 Bft) 0,00 h 4,2 km/h (1 Bft)
20.02.2010 20:00 11,4 C 2,7 C 0,0 UV-I 0,0 C 46 % 81 % 0 % 997,2 hPa 0,0 l/m 1,2 km/h (1 Bft) 0,00 h 1,8 km/h (1 Bft)
20.02.2010 21:00 11,3 C 2,2 C 0,0 UV-I 0,0 C 46 % 84 % 0 % 997,5 hPa 0,0 l/m 0,0 km/h (0 Bft) 0,00 h 0,0 km/h (0 Bft)
20.02.2010 22:00 11,2 C 1,7 C 0,0 UV-I 0,0 C 46 % 85 % 0 % 997,7 hPa 0,0 l/m 0,4 km/h (0 Bft) 0,00 h 1,0 km/h (0 Bft)
20.02.2010 23:00 11,1 C 1,4 C 0,0 UV-I 0,0 C 46 % 86 % 0 % 997,8 hPa 0,0 l/m 0,2 km/h (0 Bft) 0,00 h 0,3 km/h (0 Bft)
21.02.2010 00:00 11,1 C 1,2 C 0,0 UV-I 0,0 C 47 % 88 % 0 % 998,1 hPa 0,0 l/m 0,5 km/h (0 Bft) 0,00 h 0,7 km/h (0 Bft)
21.02.2010 01:00 11,2 C 1,1 C 0,0 UV-I 0,0 C 48 % 91 % 0 % 997,8 hPa 0,0 l/m 0,8 km/h (0 Bft) 0,00 h 0,3 km/h (0 Bft)
21.02.2010 02:00 11,1 C 1,1 C 0,0 UV-I 0,0 C 49 % 92 % 0 % 997,7 hPa 0,3 l/m 0,4 km/h (0 Bft) 0,00 h 0,2 km/h (0 Bft)
21.02.2010 03:00 11,1 C 1,1 C 0,0 UV-I 0,0 C 49 % 93 % 0 % 997,6 hPa 0,4 l/m 0,7 km/h (0 Bft) 0,00 h 1,3 km/h (1 Bft)
21.02.2010 04:00 11,1 C 1,2 C 0,0 UV-I 0,0 C 50 % 94 % 0 % 997,6 hPa 0,2 l/m 0,0 km/h (0 Bft) 0,00 h 0,0 km/h (0 Bft)
21.02.2010 05:00 11,1 C 1,2 C 0,0 UV-I 0,0 C 50 % 94 % 0 % 997,5 hPa 0,2 l/m 0,1 km/h (0 Bft) 0,00 h 0,5 km/h (0 Bft)
21.02.2010 06:00 11,1 C 1,2 C 0,0 UV-I 0,0 C 50 % 94 % 0 % 997,4 hPa 0,2 l/m 0,6 km/h (0 Bft) 0,00 h 0,9 km/h (0 Bft)
21.02.2010 07:00 11,1 C 1,2 C 0,0 UV-I 0,0 C 50 % 94 % 0 % 997,8 hPa 0,1 l/m 0,4 km/h (0 Bft) 0,00 h 0,8 km/h (0 Bft)
21.02.2010 08:00 11,1 C 1,2 C 0,0 UV-I 0,0 C 50 % 94 % 0 % 997,9 hPa 0,1 l/m 0,2 km/h (0 Bft) 0,00 h 0,2 km/h (0 Bft)
21.02.2010 09:00 11,2 C 1,4 C 0,0 UV-I 0,0 C 50 % 95 % 0 % 997,9 hPa 0,0 l/m 0,5 km/h (0 Bft) 0,00 h 0,9 km/h (0 Bft)
21.02.2010 10:00 11,3 C 2,0 C 0,9 UV-I 1,3 C 51 % 95 % 37 % 998,2 hPa 0,0 l/m 1,4 km/h (1 Bft) 0,10 h 2,1 km/h (1 Bft)
21.02.2010 11:00 11,6 C 3,0 C 1,0 UV-I 1,1 C 50 % 93 % 32 % 998,3 hPa 0,0 l/m 3,3 km/h (1 Bft) 0,00 h 4,4 km/h (1 Bft)
21.02.2010 12:00 11,9 C 3,8 C 1,9 UV-I 1,9 C 49 % 88 % 50 % 998,3 hPa 0,0 l/m 6,7 km/h (2 Bft) 0,37 h 8,3 km/h (2 Bft)
21.02.2010 13:00 12,5 C 4,9 C 1,2 UV-I 1,3 C 47 % 79 % 34 % 997,8 hPa 0,0 l/m 8,3 km/h (2 Bft) 0,17 h 9,5 km/h (2 Bft)
21.02.2010 14:00 12,8 C 5,5 C 1,6 UV-I 0,5 C 45 % 74 % 14 % 997,9 hPa 0,0 l/m 11,4 km/h (2 Bft) 0,00 h 10,4 km/h (2 Bft)
21.02.2010 15:00 12,8 C 5,7 C 1,0 UV-I 0,0 C 45 % 75 % 1 % 996,8 hPa 0,0 l/m 11,8 km/h (2 Bft) 0,00 h 9,7 km/h (2 Bft)
21.02.2010 16:00 12,7 C 5,9 C 0,3 UV-I 0,0 C 45 % 74 % 0 % 995,9 hPa 0,0 l/m 12,2 km/h (2 Bft) 0,00 h 11,9 km/h (2 Bft)
21.02.2010 17:00 12,4 C 5,8 C 0,0 UV-I 0,0 C 45 % 74 % 0 % 994,9 hPa 0,0 l/m 9,7 km/h (2 Bft) 0,00 h 8,4 km/h (2 Bft)
21.02.2010 18:00 12,2 C 5,2 C 0,0 UV-I 0,0 C 46 % 75 % 0 % 994,4 hPa 0,0 l/m 11,1 km/h (2 Bft) 0,00 h 9,7 km/h (2 Bft)
21.02.2010 19:00 11,8 C 4,2 C 0,0 UV-I 0,0 C 46 % 78 % 0 % 994,3 hPa 0,0 l/m 9,8 km/h (2 Bft) 0,00 h 8,8 km/h (2 Bft)
21.02.2010 20:00 11,6 C 3,6 C 0,0 UV-I 0,0 C 47 % 81 % 0 % 994,0 hPa 0,0 l/m 13,2 km/h (3 Bft) 0,00 h 12,6 km/h (3 Bft)
21.02.2010 21:00 11,6 C 3,4 C 0,0 UV-I 0,0 C 48 % 83 % 0 % 993,8 hPa 0,0 l/m 10,7 km/h (2 Bft) 0,00 h 9,0 km/h (2 Bft)
21.02.2010 22:00 11,6 C 3,0 C 0,0 UV-I 0,0 C 48 % 85 % 0 % 993,5 hPa 0,0 l/m 8,4 km/h (2 Bft) 0,00 h 6,9 km/h (2 Bft)
21.02.2010 23:00 11,6 C 2,8 C 0,0 UV-I 0,0 C 49 % 87 % 0 % 992,9 hPa 0,0 l/m 8,9 km/h (2 Bft) 0,00 h 7,6 km/h (2 Bft)
Min-Datum _ 15.02.10 17.02.10 15.02.10 15.02.10 16.02.10 18.02.10 15.02.10 19.02.10 - 15.02.10 - 15.02.10
_ Min-Zeit 03:50 06:36 00:00 00:00 16:12 16:10 00:00 07:52 - 00:00 - 00:00
Minimum _ 9,1 C -3,0 C 0,0 UV-I 0,0 C 34 % 62 % 0 % 988,8 hPa - 0,0 km/h (0 Bft) - 0,0 km/h (0 Bft)
Max-Datum _ 18.02.10 18.02.10 16.02.10 16.02.10 18.02.10 18.02.10 15.02.10 15.02.10 16.02.10 16.02.10 15.02.10 19.02.10
_ Max-Zeit 16:12 16:06 13:24 09:52 08:52 08:54 12:58 00:00 12:22 13:14 12:40 12:48
Maximum _ 15,6 C 10,1 C 5,8 UV-I 6,6 C 54 % 96 % 100 % 1008,1 hPa 0,6 l/m 20,9 km/h
NO (4 Bft)
0,03 h 35,8 km/h
SW (5 Bft)
Durchschnitt _ 11,1 C 1,7 C 0,3 UV-I 0,5 C 45 % 84 % 12 % 996,0 hPa #3,2 l/m 5,2 km/h (1 Bft) #10:48 h 5,6 km/h (1 Bft)
© 2012 W. Hausmann